sensor_id;sensor_type;location;lat;lon;timestamp;P1;durP1;ratioP1;P2;durP2;ratioP2
69783;SDS011;57054;51.978;4.498;2023-04-01T00:00:25;48.88;;;11.63;;
69783;SDS011;57054;51.978;4.498;2023-04-01T00:02:50;52.78;;;13.45;;
69783;SDS011;57054;51.978;4.498;2023-04-01T00:05:16;63.55;;;12.80;;
69783;SDS011;57054;51.978;4.498;2023-04-01T00:07:42;54.90;;;12.85;;
69783;SDS011;57054;51.978;4.498;2023-04-01T00:10:09;35.90;;;9.35;;
69783;SDS011;57054;51.978;4.498;2023-04-01T00:12:36;46.22;;;9.65;;
69783;SDS011;57054;51.978;4.498;2023-04-01T00:15:03;38.05;;;9.70;;
69783;SDS011;57054;51.978;4.498;2023-04-01T00:17:30;40.00;;;9.18;;
69783;SDS011;57054;51.978;4.498;2023-04-01T00:19:56;34.45;;;7.90;;
69783;SDS011;57054;51.978;4.498;2023-04-01T00:22:23;36.22;;;8.52;;
69783;SDS011;57054;51.978;4.498;2023-04-01T00:24:49;43.35;;;8.75;;
69783;SDS011;57054;51.978;4.498;2023-04-01T00:27:15;39.75;;;9.38;;
69783;SDS011;57054;51.978;4.498;2023-04-01T00:29:42;37.67;;;9.63;;
69783;SDS011;57054;51.978;4.498;2023-04-01T00:32:08;39.78;;;9.05;;
69783;SDS011;57054;51.978;4.498;2023-04-01T00:34:33;36.58;;;9.70;;
69783;SDS011;57054;51.978;4.498;2023-04-01T00:36:59;31.50;;;8.02;;
69783;SDS011;57054;51.978;4.498;2023-04-01T00:39:25;33.78;;;9.18;;
69783;SDS011;57054;51.978;4.498;2023-04-01T00:41:51;36.40;;;9.77;;
69783;SDS011;57054;51.978;4.498;2023-04-01T00:44:21;30.67;;;7.43;;
69783;SDS011;57054;51.978;4.498;2023-04-01T00:46:49;33.08;;;8.27;;
69783;SDS011;57054;51.978;4.498;2023-04-01T00:49:15;38.88;;;7.95;;
69783;SDS011;57054;51.978;4.498;2023-04-01T00:51:44;39.20;;;8.98;;
69783;SDS011;57054;51.978;4.498;2023-04-01T00:54:12;35.63;;;8.80;;
69783;SDS011;57054;51.978;4.498;2023-04-01T00:56:45;33.50;;;7.95;;
69783;SDS011;57054;51.978;4.498;2023-04-01T00:59:16;40.15;;;10.43;;
69783;SDS011;57054;51.978;4.498;2023-04-01T01:01:48;28.88;;;7.80;;
69783;SDS011;57054;51.978;4.498;2023-04-01T01:12:13;42.60;;;9.35;;
69783;SDS011;57054;51.978;4.498;2023-04-01T01:14:55;37.67;;;9.43;;
69783;SDS011;57054;51.978;4.498;2023-04-01T01:17:35;33.50;;;7.88;;
69783;SDS011;57054;51.978;4.498;2023-04-01T01:37:46;16.83;;;5.30;;
69783;SDS011;57054;51.978;4.498;2023-04-01T01:40:29;19.67;;;4.97;;
69783;SDS011;57054;51.978;4.498;2023-04-01T01:42:58;18.77;;;5.35;;
69783;SDS011;57054;51.978;4.498;2023-04-01T01:45:29;17.63;;;5.47;;
69783;SDS011;57054;51.978;4.498;2023-04-01T01:47:56;17.25;;;5.78;;
69783;SDS011;57054;51.978;4.498;2023-04-01T01:50:24;14.10;;;5.32;;
69783;SDS011;57054;51.978;4.498;2023-04-01T01:52:59;14.98;;;4.80;;
69783;SDS011;57054;51.978;4.498;2023-04-01T01:55:33;15.13;;;4.50;;
69783;SDS011;57054;51.978;4.498;2023-04-01T01:58:22;10.85;;;4.70;;
69783;SDS011;57054;51.978;4.498;2023-04-01T02:00:54;12.43;;;4.72;;
69783;SDS011;57054;51.978;4.498;2023-04-01T02:03:23;15.40;;;5.00;;
69783;SDS011;57054;51.978;4.498;2023-04-01T02:05:51;16.00;;;4.93;;
69783;SDS011;57054;51.978;4.498;2023-04-01T02:08:21;13.82;;;4.03;;
69783;SDS011;57054;51.978;4.498;2023-04-01T02:10:59;13.98;;;4.20;;
69783;SDS011;57054;51.978;4.498;2023-04-01T02:13:40;8.70;;;3.63;;
69783;SDS011;57054;51.978;4.498;2023-04-01T02:16:33;12.05;;;3.47;;
69783;SDS011;57054;51.978;4.498;2023-04-01T02:19:04;12.95;;;4.10;;
69783;SDS011;57054;51.978;4.498;2023-04-01T02:21:32;12.82;;;3.55;;
69783;SDS011;57054;51.978;4.498;2023-04-01T02:24:03;10.38;;;3.90;;
69783;SDS011;57054;51.978;4.498;2023-04-01T02:26:33;11.80;;;4.47;;
69783;SDS011;57054;51.978;4.498;2023-04-01T02:29:00;10.15;;;3.97;;
69783;SDS011;57054;51.978;4.498;2023-04-01T02:31:28;12.70;;;3.70;;
69783;SDS011;57054;51.978;4.498;2023-04-01T02:33:55;7.15;;;3.20;;
69783;SDS011;57054;51.978;4.498;2023-04-01T02:36:21;10.75;;;3.22;;
69783;SDS011;57054;51.978;4.498;2023-04-01T02:38:46;5.85;;;3.53;;
69783;SDS011;57054;51.978;4.498;2023-04-01T02:41:17;14.63;;;4.53;;
69783;SDS011;57054;51.978;4.498;2023-04-01T02:43:43;8.43;;;4.20;;
69783;SDS011;57054;51.978;4.498;2023-04-01T02:46:08;8.07;;;4.32;;
69783;SDS011;57054;51.978;4.498;2023-04-01T02:48:36;9.83;;;4.40;;
69783;SDS011;57054;51.978;4.498;2023-04-01T02:51:02;14.88;;;5.47;;
69783;SDS011;57054;51.978;4.498;2023-04-01T02:53:27;7.70;;;5.38;;
69783;SDS011;57054;51.978;4.498;2023-04-01T02:55:53;7.93;;;4.68;;
69783;SDS011;57054;51.978;4.498;2023-04-01T02:58:18;8.75;;;4.88;;
69783;SDS011;57054;51.978;4.498;2023-04-01T03:00:44;8.48;;;5.50;;
69783;SDS011;57054;51.978;4.498;2023-04-01T03:03:10;6.43;;;5.82;;
69783;SDS011;57054;51.978;4.498;2023-04-01T03:05:35;9.18;;;6.55;;
69783;SDS011;57054;51.978;4.498;2023-04-01T03:08:01;11.05;;;7.43;;
69783;SDS011;57054;51.978;4.498;2023-04-01T03:10:27;12.85;;;7.57;;
69783;SDS011;57054;51.978;4.498;2023-04-01T03:12:52;11.70;;;8.27;;
69783;SDS011;57054;51.978;4.498;2023-04-01T03:15:18;21.52;;;10.15;;
69783;SDS011;57054;51.978;4.498;2023-04-01T03:17:43;20.05;;;10.88;;
69783;SDS011;57054;51.978;4.498;2023-04-01T03:20:09;21.88;;;10.20;;
69783;SDS011;57054;51.978;4.498;2023-04-01T03:22:36;21.58;;;11.02;;
69783;SDS011;57054;51.978;4.498;2023-04-01T03:25:02;27.30;;;12.43;;
69783;SDS011;57054;51.978;4.498;2023-04-01T03:27:28;26.15;;;12.30;;
69783;SDS011;57054;51.978;4.498;2023-04-01T03:29:53;22.58;;;10.38;;
69783;SDS011;57054;51.978;4.498;2023-04-01T03:32:19;28.88;;;11.98;;
69783;SDS011;57054;51.978;4.498;2023-04-01T03:34:44;25.50;;;12.10;;
69783;SDS011;57054;51.978;4.498;2023-04-01T03:37:10;36.13;;;12.57;;
69783;SDS011;57054;51.978;4.498;2023-04-01T03:39:35;31.90;;;11.70;;
69783;SDS011;57054;51.978;4.498;2023-04-01T03:42:01;33.03;;;12.57;;
69783;SDS011;57054;51.978;4.498;2023-04-01T03:44:29;30.33;;;10.93;;
69783;SDS011;57054;51.978;4.498;2023-04-01T03:46:56;24.98;;;12.05;;
69783;SDS011;57054;51.978;4.498;2023-04-01T03:49:22;25.80;;;11.85;;
69783;SDS011;57054;51.978;4.498;2023-04-01T03:51:47;29.17;;;11.52;;
69783;SDS011;57054;51.978;4.498;2023-04-01T03:54:12;38.13;;;12.20;;
69783;SDS011;57054;51.978;4.498;2023-04-01T03:56:38;35.35;;;12.02;;
69783;SDS011;57054;51.978;4.498;2023-04-01T03:59:04;28.50;;;12.63;;
69783;SDS011;57054;51.978;4.498;2023-04-01T04:01:31;29.90;;;11.63;;
69783;SDS011;57054;51.978;4.498;2023-04-01T04:03:56;32.40;;;12.63;;
69783;SDS011;57054;51.978;4.498;2023-04-01T04:06:22;30.67;;;12.45;;
69783;SDS011;57054;51.978;4.498;2023-04-01T04:08:48;32.67;;;12.63;;
69783;SDS011;57054;51.978;4.498;2023-04-01T04:11:14;25.05;;;10.90;;
69783;SDS011;57054;51.978;4.498;2023-04-01T04:13:40;35.00;;;11.45;;
69783;SDS011;57054;51.978;4.498;2023-04-01T04:16:06;29.90;;;11.77;;
69783;SDS011;57054;51.978;4.498;2023-04-01T04:18:32;27.95;;;11.30;;
69783;SDS011;57054;51.978;4.498;2023-04-01T04:20:57;27.38;;;11.68;;
69783;SDS011;57054;51.978;4.498;2023-04-01T04:23:23;27.55;;;11.55;;
69783;SDS011;57054;51.978;4.498;2023-04-01T04:28:20;23.23;;;11.32;;
69783;SDS011;57054;51.978;4.498;2023-04-01T04:30:45;20.42;;;10.45;;
69783;SDS011;57054;51.978;4.498;2023-04-01T04:33:11;22.60;;;10.20;;
69783;SDS011;57054;51.978;4.498;2023-04-01T04:35:36;19.90;;;10.27;;
69783;SDS011;57054;51.978;4.498;2023-04-01T04:38:02;21.63;;;10.25;;
69783;SDS011;57054;51.978;4.498;2023-04-01T04:40:27;16.42;;;10.00;;
69783;SDS011;57054;51.978;4.498;2023-04-01T04:42:52;17.05;;;9.45;;
69783;SDS011;57054;51.978;4.498;2023-04-01T04:45:18;24.98;;;11.07;;
69783;SDS011;57054;51.978;4.498;2023-04-01T04:47:43;26.58;;;11.23;;
69783;SDS011;57054;51.978;4.498;2023-04-01T04:50:09;19.08;;;10.25;;
69783;SDS011;57054;51.978;4.498;2023-04-01T04:52:35;19.98;;;9.77;;
69783;SDS011;57054;51.978;4.498;2023-04-01T04:55:00;17.00;;;8.95;;
69783;SDS011;57054;51.978;4.498;2023-04-01T04:57:25;22.23;;;10.00;;
69783;SDS011;57054;51.978;4.498;2023-04-01T04:59:51;22.58;;;10.98;;
69783;SDS011;57054;51.978;4.498;2023-04-01T05:02:16;25.52;;;11.15;;
69783;SDS011;57054;51.978;4.498;2023-04-01T05:04:42;21.60;;;10.45;;
69783;SDS011;57054;51.978;4.498;2023-04-01T05:07:07;19.85;;;10.40;;
69783;SDS011;57054;51.978;4.498;2023-04-01T05:09:33;22.95;;;11.90;;
69783;SDS011;57054;51.978;4.498;2023-04-01T05:11:58;23.30;;;12.07;;
69783;SDS011;57054;51.978;4.498;2023-04-01T05:14:24;32.58;;;12.25;;
69783;SDS011;57054;51.978;4.498;2023-04-01T05:16:49;23.10;;;11.77;;
69783;SDS011;57054;51.978;4.498;2023-04-01T05:19:15;24.23;;;12.07;;
69783;SDS011;57054;51.978;4.498;2023-04-01T05:21:40;22.70;;;11.00;;
69783;SDS011;57054;51.978;4.498;2023-04-01T05:24:09;25.33;;;12.82;;
69783;SDS011;57054;51.978;4.498;2023-04-01T05:26:34;28.40;;;12.73;;
69783;SDS011;57054;51.978;4.498;2023-04-01T05:29:01;29.48;;;12.80;;
69783;SDS011;57054;51.978;4.498;2023-04-01T05:31:27;25.17;;;11.45;;
69783;SDS011;57054;51.978;4.498;2023-04-01T05:33:52;28.65;;;12.32;;
69783;SDS011;57054;51.978;4.498;2023-04-01T05:36:21;25.58;;;11.55;;
69783;SDS011;57054;51.978;4.498;2023-04-01T05:38:47;26.65;;;12.07;;
69783;SDS011;57054;51.978;4.498;2023-04-01T05:41:13;20.58;;;10.45;;
69783;SDS011;57054;51.978;4.498;2023-04-01T05:43:40;25.83;;;13.27;;
69783;SDS011;57054;51.978;4.498;2023-04-01T05:46:06;23.05;;;12.68;;
69783;SDS011;57054;51.978;4.498;2023-04-01T05:48:32;26.77;;;12.85;;
69783;SDS011;57054;51.978;4.498;2023-04-01T05:50:59;28.88;;;12.57;;
69783;SDS011;57054;51.978;4.498;2023-04-01T05:53:25;21.17;;;11.70;;
69783;SDS011;57054;51.978;4.498;2023-04-01T05:55:50;25.40;;;11.45;;
69783;SDS011;57054;51.978;4.498;2023-04-01T05:58:16;21.17;;;10.43;;
69783;SDS011;57054;51.978;4.498;2023-04-01T06:00:41;25.83;;;10.52;;
69783;SDS011;57054;51.978;4.498;2023-04-01T06:03:09;21.92;;;11.07;;
69783;SDS011;57054;51.978;4.498;2023-04-01T06:05:39;25.23;;;12.18;;
69783;SDS011;57054;51.978;4.498;2023-04-01T06:08:10;31.20;;;12.35;;
69783;SDS011;57054;51.978;4.498;2023-04-01T06:13:07;27.27;;;13.18;;
69783;SDS011;57054;51.978;4.498;2023-04-01T06:15:59;27.77;;;12.05;;
69783;SDS011;57054;51.978;4.498;2023-04-01T06:18:39;26.48;;;13.02;;
69783;SDS011;57054;51.978;4.498;2023-04-01T06:31:51;30.05;;;14.70;;
69783;SDS011;57054;51.978;4.498;2023-04-01T06:34:33;30.30;;;12.18;;
69783;SDS011;57054;51.978;4.498;2023-04-01T06:47:36;24.08;;;11.75;;
69783;SDS011;57054;51.978;4.498;2023-04-01T06:57:49;25.02;;;12.63;;
69783;SDS011;57054;51.978;4.498;2023-04-01T07:00:27;24.08;;;11.50;;
69783;SDS011;57054;51.978;4.498;2023-04-01T07:05:46;16.38;;;9.73;;
69783;SDS011;57054;51.978;4.498;2023-04-01T07:08:13;15.95;;;10.02;;
69783;SDS011;57054;51.978;4.498;2023-04-01T07:10:44;14.82;;;9.35;;
69783;SDS011;57054;51.978;4.498;2023-04-01T07:13:25;13.77;;;9.48;;
69783;SDS011;57054;51.978;4.498;2023-04-01T07:15:58;12.88;;;8.63;;
69783;SDS011;57054;51.978;4.498;2023-04-01T07:18:32;13.07;;;7.57;;
69783;SDS011;57054;51.978;4.498;2023-04-01T07:21:03;10.95;;;7.85;;
69783;SDS011;57054;51.978;4.498;2023-04-01T07:23:37;9.18;;;7.18;;
69783;SDS011;57054;51.978;4.498;2023-04-01T07:29:00;8.95;;;6.38;;
69783;SDS011;57054;51.978;4.498;2023-04-01T07:31:30;7.43;;;5.60;;
69783;SDS011;57054;51.978;4.498;2023-04-01T07:34:28;6.25;;;5.65;;
69783;SDS011;57054;51.978;4.498;2023-04-01T07:37:14;6.45;;;5.03;;
69783;SDS011;57054;51.978;4.498;2023-04-01T07:45:48;6.10;;;5.25;;
69783;SDS011;57054;51.978;4.498;2023-04-01T07:48:48;7.65;;;5.78;;
69783;SDS011;57054;51.978;4.498;2023-04-01T07:59:31;13.98;;;8.30;;
69783;SDS011;57054;51.978;4.498;2023-04-01T08:10:07;18.00;;;8.63;;
69783;SDS011;57054;51.978;4.498;2023-04-01T08:15:23;14.48;;;9.00;;
69783;SDS011;57054;51.978;4.498;2023-04-01T08:17:59;19.13;;;8.63;;
69783;SDS011;57054;51.978;4.498;2023-04-01T08:26:00;22.38;;;9.25;;
69783;SDS011;57054;51.978;4.498;2023-04-01T08:28:34;20.35;;;9.93;;
69783;SDS011;57054;51.978;4.498;2023-04-01T08:31:09;22.80;;;11.35;;
69783;SDS011;57054;51.978;4.498;2023-04-01T08:33:56;18.58;;;9.05;;
69783;SDS011;57054;51.978;4.498;2023-04-01T08:36:28;20.65;;;10.07;;
69783;SDS011;57054;51.978;4.498;2023-04-01T08:38:59;29.15;;;10.70;;
69783;SDS011;57054;51.978;4.498;2023-04-01T08:52:36;26.27;;;11.48;;
69783;SDS011;57054;51.978;4.498;2023-04-01T09:00:56;21.73;;;11.02;;
69783;SDS011;57054;51.978;4.498;2023-04-01T09:03:33;29.52;;;10.80;;
69783;SDS011;57054;51.978;4.498;2023-04-01T09:09:02;21.73;;;9.13;;
69783;SDS011;57054;51.978;4.498;2023-04-01T09:17:30;12.93;;;7.55;;
69783;SDS011;57054;51.978;4.498;2023-04-01T09:26:35;18.92;;;8.85;;
69783;SDS011;57054;51.978;4.498;2023-04-01T09:29:16;23.23;;;9.95;;
69783;SDS011;57054;51.978;4.498;2023-04-01T09:34:52;24.40;;;11.68;;
69783;SDS011;57054;51.978;4.498;2023-04-01T09:40:16;19.80;;;9.65;;
69783;SDS011;57054;51.978;4.498;2023-04-01T09:42:55;20.25;;;9.95;;
69783;SDS011;57054;51.978;4.498;2023-04-01T10:24:24;19.00;;;8.77;;
69783;SDS011;57054;51.978;4.498;2023-04-01T10:27:14;14.07;;;7.45;;
69783;SDS011;57054;51.978;4.498;2023-04-01T10:41:13;27.92;;;10.98;;
69783;SDS011;57054;51.978;4.498;2023-04-01T10:47:11;15.55;;;8.68;;
69783;SDS011;57054;51.978;4.498;2023-04-01T11:20:01;25.40;;;9.55;;
69783;SDS011;57054;51.978;4.498;2023-04-01T11:28:04;25.25;;;9.95;;
69783;SDS011;57054;51.978;4.498;2023-04-01T11:36:22;23.45;;;10.00;;
69783;SDS011;57054;51.978;4.498;2023-04-01T11:38:57;25.73;;;10.90;;
69783;SDS011;57054;51.978;4.498;2023-04-01T11:44:19;24.23;;;10.18;;
69783;SDS011;57054;51.978;4.498;2023-04-01T12:19:59;20.83;;;8.80;;
69783;SDS011;57054;51.978;4.498;2023-04-01T12:22:45;19.45;;;7.63;;
69783;SDS011;57054;51.978;4.498;2023-04-01T12:36:40;18.50;;;8.05;;
69783;SDS011;57054;51.978;4.498;2023-04-01T12:44:37;18.88;;;8.05;;
69783;SDS011;57054;51.978;4.498;2023-04-01T12:47:29;18.75;;;8.80;;
69783;SDS011;57054;51.978;4.498;2023-04-01T12:50:34;21.73;;;9.80;;
69783;SDS011;57054;51.978;4.498;2023-04-01T12:55:50;22.52;;;9.55;;
69783;SDS011;57054;51.978;4.498;2023-04-01T12:58:30;19.83;;;9.35;;
69783;SDS011;57054;51.978;4.498;2023-04-01T13:01:44;22.83;;;9.70;;
69783;SDS011;57054;51.978;4.498;2023-04-01T13:10:18;18.65;;;8.45;;
69783;SDS011;57054;51.978;4.498;2023-04-01T13:26:52;22.48;;;9.70;;
69783;SDS011;57054;51.978;4.498;2023-04-01T13:29:25;24.20;;;9.50;;
69783;SDS011;57054;51.978;4.498;2023-04-01T13:57:46;18.98;;;6.43;;
69783;SDS011;57054;51.978;4.498;2023-04-01T14:03:36;13.93;;;6.68;;
69783;SDS011;57054;51.978;4.498;2023-04-01T14:12:06;8.95;;;5.38;;
69783;SDS011;57054;51.978;4.498;2023-04-01T14:14:57;17.48;;;6.05;;
69783;SDS011;57054;51.978;4.498;2023-04-01T14:17:38;13.90;;;5.93;;
69783;SDS011;57054;51.978;4.498;2023-04-01T14:29:23;15.40;;;5.95;;
69783;SDS011;57054;51.978;4.498;2023-04-01T14:32:23;9.88;;;5.35;;
69783;SDS011;57054;51.978;4.498;2023-04-01T14:40:16;12.00;;;5.22;;
69783;SDS011;57054;51.978;4.498;2023-04-01T14:45:36;11.18;;;5.38;;
69783;SDS011;57054;51.978;4.498;2023-04-01T14:50:49;20.88;;;6.15;;
69783;SDS011;57054;51.978;4.498;2023-04-01T14:55:52;17.45;;;5.50;;
69783;SDS011;57054;51.978;4.498;2023-04-01T14:58:20;16.33;;;4.90;;
69783;SDS011;57054;51.978;4.498;2023-04-01T15:03:19;30.10;;;6.50;;
69783;SDS011;57054;51.978;4.498;2023-04-01T15:08:52;18.15;;;5.15;;
69783;SDS011;57054;51.978;4.498;2023-04-01T15:45:26;9.98;;;4.90;;
69783;SDS011;57054;51.978;4.498;2023-04-01T15:56:56;12.88;;;5.50;;
69783;SDS011;57054;51.978;4.498;2023-04-01T15:59:47;11.95;;;5.68;;
69783;SDS011;57054;51.978;4.498;2023-04-01T16:02:31;16.23;;;6.00;;
69783;SDS011;57054;51.978;4.498;2023-04-01T16:08:02;16.00;;;6.55;;
69783;SDS011;57054;51.978;4.498;2023-04-01T16:13:42;17.67;;;6.60;;
69783;SDS011;57054;51.978;4.498;2023-04-01T16:19:23;10.20;;;7.88;;
69783;SDS011;57054;51.978;4.498;2023-04-01T16:29:49;12.75;;;8.35;;
69783;SDS011;57054;51.978;4.498;2023-04-01T16:32:22;14.50;;;8.88;;
69783;SDS011;57054;51.978;4.498;2023-04-01T16:35:16;11.27;;;8.85;;
69783;SDS011;57054;51.978;4.498;2023-04-01T16:42:51;9.63;;;7.72;;
69783;SDS011;57054;51.978;4.498;2023-04-01T16:48:28;8.10;;;7.22;;
69783;SDS011;57054;51.978;4.498;2023-04-01T16:51:15;9.23;;;7.28;;
69783;SDS011;57054;51.978;4.498;2023-04-01T16:56:22;9.13;;;7.40;;
69783;SDS011;57054;51.978;4.498;2023-04-01T17:01:44;8.82;;;7.32;;
69783;SDS011;57054;51.978;4.498;2023-04-01T17:04:23;13.02;;;8.02;;
69783;SDS011;57054;51.978;4.498;2023-04-01T17:06:59;8.52;;;7.25;;
69783;SDS011;57054;51.978;4.498;2023-04-01T17:15:18;8.38;;;6.90;;
69783;SDS011;57054;51.978;4.498;2023-04-01T17:18:01;8.73;;;7.75;;
69783;SDS011;57054;51.978;4.498;2023-04-01T17:20:32;11.43;;;8.45;;
69783;SDS011;57054;51.978;4.498;2023-04-01T17:23:12;7.88;;;7.22;;
69783;SDS011;57054;51.978;4.498;2023-04-01T17:28:50;8.30;;;7.60;;
69783;SDS011;57054;51.978;4.498;2023-04-01T17:34:17;9.90;;;8.80;;
69783;SDS011;57054;51.978;4.498;2023-04-01T17:39:40;9.52;;;7.57;;
69783;SDS011;57054;51.978;4.498;2023-04-01T17:42:15;7.47;;;6.78;;
69783;SDS011;57054;51.978;4.498;2023-04-01T17:45:07;10.60;;;7.38;;
69783;SDS011;57054;51.978;4.498;2023-04-01T17:59:05;6.82;;;6.25;;
69783;SDS011;57054;51.978;4.498;2023-04-01T18:04:25;9.80;;;6.72;;
69783;SDS011;57054;51.978;4.498;2023-04-01T18:10:07;7.47;;;6.70;;
69783;SDS011;57054;51.978;4.498;2023-04-01T18:23:36;6.85;;;6.32;;
69783;SDS011;57054;51.978;4.498;2023-04-01T18:28:54;5.28;;;4.88;;
69783;SDS011;57054;51.978;4.498;2023-04-01T18:31:24;5.20;;;4.70;;
69783;SDS011;57054;51.978;4.498;2023-04-01T18:34:07;4.50;;;4.13;;
69783;SDS011;57054;51.978;4.498;2023-04-01T18:36:46;3.83;;;3.63;;
69783;SDS011;57054;51.978;4.498;2023-04-01T18:39:33;3.70;;;3.50;;
69783;SDS011;57054;51.978;4.498;2023-04-01T18:42:16;3.10;;;2.90;;
69783;SDS011;57054;51.978;4.498;2023-04-01T18:45:00;3.67;;;3.45;;
69783;SDS011;57054;51.978;4.498;2023-04-01T18:47:43;3.20;;;3.00;;
69783;SDS011;57054;51.978;4.498;2023-04-01T18:52:56;3.90;;;3.70;;
69783;SDS011;57054;51.978;4.498;2023-04-01T18:55:38;5.20;;;4.80;;
69783;SDS011;57054;51.978;4.498;2023-04-01T18:58:16;4.75;;;4.43;;
69783;SDS011;57054;51.978;4.498;2023-04-01T19:01:01;6.53;;;5.93;;
69783;SDS011;57054;51.978;4.498;2023-04-01T19:03:37;5.47;;;5.03;;
69783;SDS011;57054;51.978;4.498;2023-04-01T19:06:12;5.97;;;5.57;;
69783;SDS011;57054;51.978;4.498;2023-04-01T19:08:42;6.57;;;6.15;;
69783;SDS011;57054;51.978;4.498;2023-04-01T19:14:12;27.08;;;18.90;;
69783;SDS011;57054;51.978;4.498;2023-04-01T19:16:54;8.45;;;7.65;;
69783;SDS011;57054;51.978;4.498;2023-04-01T19:22:24;28.42;;;23.83;;
69783;SDS011;57054;51.978;4.498;2023-04-01T19:27:50;37.42;;;27.75;;
69783;SDS011;57054;51.978;4.498;2023-04-01T19:44:09;5.90;;;5.50;;
69783;SDS011;57054;51.978;4.498;2023-04-01T19:52:41;7.00;;;6.50;;
69783;SDS011;57054;51.978;4.498;2023-04-01T19:55:14;17.23;;;15.50;;
69783;SDS011;57054;51.978;4.498;2023-04-01T20:00:36;9.30;;;8.40;;
69783;SDS011;57054;51.978;4.498;2023-04-01T20:08:16;6.40;;;6.00;;
69783;SDS011;57054;51.978;4.498;2023-04-01T20:13:52;11.13;;;10.13;;
69783;SDS011;57054;51.978;4.498;2023-04-01T20:16:47;9.32;;;8.45;;
69783;SDS011;57054;51.978;4.498;2023-04-01T20:19:19;12.23;;;10.98;;
69783;SDS011;57054;51.978;4.498;2023-04-01T20:21:55;9.43;;;8.63;;
69783;SDS011;57054;51.978;4.498;2023-04-01T20:24:29;9.15;;;8.35;;
69783;SDS011;57054;51.978;4.498;2023-04-01T20:35:53;7.07;;;6.47;;
69783;SDS011;57054;51.978;4.498;2023-04-01T20:44:45;6.10;;;5.63;;
69783;SDS011;57054;51.978;4.498;2023-04-01T20:55:30;10.45;;;8.95;;
69783;SDS011;57054;51.978;4.498;2023-04-01T21:00:52;9.82;;;7.97;;
69783;SDS011;57054;51.978;4.498;2023-04-01T21:03:41;8.13;;;7.32;;
69783;SDS011;57054;51.978;4.498;2023-04-01T21:14:33;5.70;;;5.20;;
69783;SDS011;57054;51.978;4.498;2023-04-01T21:17:44;5.63;;;5.15;;
69783;SDS011;57054;51.978;4.498;2023-04-01T21:28:29;8.73;;;7.38;;
69783;SDS011;57054;51.978;4.498;2023-04-01T21:34:04;7.63;;;6.93;;
69783;SDS011;57054;51.978;4.498;2023-04-01T21:36:36;9.13;;;7.45;;
69783;SDS011;57054;51.978;4.498;2023-04-01T21:39:23;8.68;;;7.88;;
69783;SDS011;57054;51.978;4.498;2023-04-01T21:42:26;10.38;;;6.88;;
69783;SDS011;57054;51.978;4.498;2023-04-01T22:01:59;9.20;;;8.30;;
69783;SDS011;57054;51.978;4.498;2023-04-01T22:04:45;9.63;;;7.88;;
69783;SDS011;57054;51.978;4.498;2023-04-01T22:07:15;7.72;;;7.03;;
69783;SDS011;57054;51.978;4.498;2023-04-01T22:09:52;7.60;;;6.90;;
69783;SDS011;57054;51.978;4.498;2023-04-01T22:20:50;10.10;;;8.73;;
69783;SDS011;57054;51.978;4.498;2023-04-01T22:39:17;5.40;;;5.00;;
69783;SDS011;57054;51.978;4.498;2023-04-01T22:45:07;7.05;;;6.35;;
69783;SDS011;57054;51.978;4.498;2023-04-01T22:50:40;6.82;;;6.28;;
69783;SDS011;57054;51.978;4.498;2023-04-01T22:56:04;6.70;;;5.97;;
69783;SDS011;57054;51.978;4.498;2023-04-01T22:58:42;6.50;;;6.00;;
69783;SDS011;57054;51.978;4.498;2023-04-01T23:01:17;5.95;;;5.45;;
69783;SDS011;57054;51.978;4.498;2023-04-01T23:03:49;6.47;;;5.88;;
69783;SDS011;57054;51.978;4.498;2023-04-01T23:06:27;6.20;;;5.47;;
69783;SDS011;57054;51.978;4.498;2023-04-01T23:09:13;7.97;;;6.22;;
69783;SDS011;57054;51.978;4.498;2023-04-01T23:17:01;7.35;;;6.63;;
69783;SDS011;57054;51.978;4.498;2023-04-01T23:31:03;10.02;;;7.07;;
69783;SDS011;57054;51.978;4.498;2023-04-01T23:33:57;7.10;;;6.43;;
69783;SDS011;57054;51.978;4.498;2023-04-01T23:36:25;6.97;;;6.32;;
69783;SDS011;57054;51.978;4.498;2023-04-01T23:38:51;7.32;;;6.45;;
69783;SDS011;57054;51.978;4.498;2023-04-01T23:41:27;6.63;;;6.03;;
69783;SDS011;57054;51.978;4.498;2023-04-01T23:46:23;11.57;;;7.07;;
69783;SDS011;57054;51.978;4.498;2023-04-01T23:48:50;7.22;;;6.18;;
69783;SDS011;57054;51.978;4.498;2023-04-01T23:53:45;8.45;;;7.07;;
69783;SDS011;57054;51.978;4.498;2023-04-01T23:56:12;11.98;;;7.28;;
69783;SDS011;57054;51.978;4.498;2023-04-01T23:58:42;11.00;;;7.03;;
